Time;durP1;ratioP1;P1;durP2;ratioP2;P2;SDS_P1;SDS_P2;PMS_P1;PMS_P2;Temp;Humidity;BMP_temperature;BMP_pressure;BME280_temperature;BME280_humidity;BME280_pressure;Samples;Min_cycle;Max_cycle;Signal;HPM_P1;HPM_P2
2021/12/17 00:00:46;;;;;;;17.20;5.30;;;;;;;4.82;81.97;101406.48;126215;1312;108673;-81
2021/12/17 00:03:53;;;;;;;16.10;5.00;;;;;;;4.84;82.10;101396.51;126589;1312;108758;-82
2021/12/17 00:06:59;;;;;;;15.70;5.30;;;;;;;4.88;82.06;101404.02;126620;1312;108663;-82
2021/12/17 00:10:09;;;;;;;19.00;5.00;;;;;;;4.84;81.85;101408.65;126260;1312;107602;-79
2021/12/17 00:13:15;;;;;;;17.40;4.90;;;;;;;4.80;81.95;101410.80;126503;1310;107356;-81
2021/12/17 00:16:24;;;;;;;20.90;5.40;;;;;;;4.77;81.84;101411.50;126622;1312;108813;-80
2021/12/17 00:19:45;;;;;;;20.40;4.80;;;;;;;4.78;81.99;101407.95;126471;1311;108740;-80
2021/12/17 00:50:33;;;;;;;14.50;4.30;;;;;;;4.65;81.81;101417.46;126533;1312;107865;-81
2021/12/17 00:53:38;;;;;;;16.20;4.50;;;;;;;4.57;82.04;101414.92;126435;1312;108793;-83
2021/12/17 00:56:44;;;;;;;19.10;5.50;;;;;;;4.57;82.18;101410.73;126741;1312;108949;-83
2021/12/17 00:59:51;;;;;;;22.00;7.10;;;;;;;4.61;82.39;101417.67;128332;1312;108472;-83
2021/12/17 01:02:57;;;;;;;16.10;4.80;;;;;;;4.69;82.17;101420.20;127687;1312;109026;-81
2021/12/17 01:06:03;;;;;;;17.60;4.70;;;;;;;4.68;81.95;101415.68;126579;1312;108857;-82
2021/12/17 01:09:16;;;;;;;20.90;5.00;;;;;;;4.65;82.13;101407.39;126664;1312;108743;-85
2021/12/17 01:12:23;;;;;;;20.20;5.00;;;;;;;4.66;81.87;101409.63;126586;1312;108944;-85
2021/12/17 01:15:43;;;;;;;15.40;4.20;;;;;;;4.69;82.14;101414.77;126496;1315;108906;-82
2021/12/17 01:19:14;;;;;;;14.10;4.00;;;;;;;4.75;81.80;101403.89;126502;1312;108814;-80
2021/12/17 01:22:47;;;;;;;18.10;4.90;;;;;;;4.74;81.84;101396.02;126464;1312;109043;-84
2021/12/17 01:38:22;;;;;;;;;;;;;;;4.74;81.80;101386.63;126507;1310;109041;-79
2021/12/17 01:44:47;;;;;;;15.30;4.40;;;;;;;4.71;81.63;101396.81;126265;1314;108778;-80
2021/12/17 01:47:53;;;;;;;16.00;5.40;;;;;;;4.67;81.74;101390.01;126411;1312;108859;-80
2021/12/17 02:01:22;;;;;;;18.50;4.20;;;;;;;4.52;82.03;101389.46;126126;1316;108916;-82
2021/12/17 02:04:30;;;;;;;14.10;4.10;;;;;;;4.55;82.04;101390.55;126437;1317;109032;-82
2021/12/17 02:07:36;;;;;;;16.30;4.90;;;;;;;4.53;82.04;101385.14;126127;1312;308159;-80
2021/12/17 02:21:36;;;;;;;16.20;4.50;;;;;;;4.46;82.15;101395.60;126265;1310;108801;-78
2021/12/17 02:31:31;;;;;;;19.60;4.60;;;;;;;4.47;81.99;101374.39;126543;1312;108938;-83
2021/12/17 02:35:00;;;;;;;14.50;4.40;;;;;;;4.38;81.99;101370.16;126517;1312;109090;-83
2021/12/17 02:38:09;;;;;;;16.20;4.70;;;;;;;4.35;82.11;101366.66;126502;1312;108812;-85
2021/12/17 02:45:32;;;;;;;16.70;4.70;;;;;;;4.30;82.19;101369.52;126539;1314;108646;-79
2021/12/17 02:48:40;;;;;;;20.00;5.10;;;;;;;4.27;82.27;101368.83;126676;1312;108557;-79
2021/12/17 02:51:50;;;;;;;16.20;5.30;;;;;;;4.24;82.30;101364.58;126531;1312;108779;-81
2021/12/17 02:54:57;;;;;;;15.20;3.80;;;;;;;4.22;82.51;101366.80;126528;1312;108949;-80
2021/12/17 02:58:03;;;;;;;16.50;3.90;;;;;;;4.17;82.77;101368.15;126493;1317;108798;-80
2021/12/17 03:01:11;;;;;;;17.60;4.60;;;;;;;4.15;82.82;101362.44;126502;1311;108805;-80
2021/12/17 03:04:18;;;;;;;16.60;4.90;;;;;;;4.20;82.77;101365.67;126456;1310;108938;-74
2021/12/17 03:07:24;;;;;;;20.70;5.20;;;;;;;4.24;82.77;101363.05;126423;1310;108982;-74
2021/12/17 03:10:29;;;;;;;21.90;5.10;;;;;;;4.23;82.58;101361.46;126443;1312;108767;-75
2021/12/17 03:13:37;;;;;;;17.30;5.60;;;;;;;4.26;82.71;101366.77;126176;1315;108795;-73
2021/12/17 03:16:55;;;;;;;17.00;4.30;;;;;;;4.29;82.63;101367.66;126368;1312;108916;-77
2021/12/17 03:23:28;;;;;;;15.90;5.10;;;;;;;4.30;82.65;101368.47;126098;1312;108959;-79
2021/12/17 03:26:35;;;;;;;20.50;5.70;;;;;;;4.28;82.68;101368.39;126370;1313;107783;-81
2021/12/17 03:29:41;;;;;;;19.50;5.40;;;;;;;4.23;82.63;101369.08;126462;1312;109476;-79
2021/12/17 03:32:47;;;;;;;13.70;4.50;;;;;;;4.18;82.74;101365.31;126432;1309;108923;-79
2021/12/17 03:35:54;;;;;;;15.00;5.10;;;;;;;4.18;82.75;101364.04;126845;1309;108866;-79
2021/12/17 03:38:59;;;;;;;18.20;4.50;;;;;;;4.21;82.69;101349.23;126654;1312;108980;-79
2021/12/17 03:42:07;;;;;;;17.50;5.00;;;;;;;4.27;82.73;101340.31;126823;1313;108823;-78
2021/12/17 03:45:20;;;;;;;11.50;4.30;;;;;;;4.22;82.32;101343.60;126683;1310;107487;-81
2021/12/17 03:48:31;;;;;;;;;;;;;;;4.13;82.50;101341.48;126634;1309;107805;-79
2021/12/17 03:51:47;;;;;;;20.10;5.90;;;;;;;3.99;82.55;101342.42;126821;1309;108783;-79
2021/12/17 03:54:52;;;;;;;16.80;4.40;;;;;;;3.82;82.66;101339.80;126498;1309;108917;-80
2021/12/17 03:58:00;;;;;;;15.40;4.20;;;;;;;3.74;82.97;101341.80;126717;1309;108429;-82
2021/12/17 04:01:06;;;;;;;16.00;4.90;;;;;;;3.67;83.04;101333.89;126758;1309;108848;-82
2021/12/17 04:04:12;;;;;;;14.60;5.00;;;;;;;3.63;83.04;101335.86;126844;1309;108748;-84
2021/12/17 04:07:21;;;;;;;17.60;4.70;;;;;;;3.59;82.91;101338.92;126696;1309;109081;-81
2021/12/17 04:10:49;;;;;;;20.60;4.40;;;;;;;3.53;83.37;101340.44;126847;1309;108862;-82
2021/12/17 04:13:57;;;;;;;17.80;5.10;;;;;;;3.45;83.33;101335.41;126670;1309;108690;-81
2021/12/17 04:17:05;;;;;;;14.90;4.70;;;;;;;3.44;83.28;101328.06;126610;1313;108988;-81
2021/12/17 04:20:12;;;;;;;15.20;3.90;;;;;;;3.45;83.27;101329.27;126707;1312;108870;-82
2021/12/17 04:23:18;;;;;;;15.40;4.50;;;;;;;3.44;83.32;101330.86;126738;1312;109035;-81
2021/12/17 04:26:27;;;;;;;20.70;5.00;;;;;;;3.41;83.08;101325.57;127076;1310;108944;-81
2021/12/17 04:29:43;;;;;;;15.70;4.80;;;;;;;3.37;83.32;101327.55;126765;1313;108950;-82
2021/12/17 04:32:49;;;;;;;33.40;10.10;;;;;;;3.36;83.58;101322.35;126738;1312;108696;-84
2021/12/17 04:35:57;;;;;;;40.80;22.20;;;;;;;3.35;83.53;101323.43;127139;1312;108975;-83
2021/12/17 04:39:04;;;;;;;19.40;5.50;;;;;;;3.40;83.36;101325.47;127347;1312;108909;-83
2021/12/17 04:42:16;;;;;;;17.30;5.70;;;;;;;3.39;83.65;101323.92;126658;1312;108842;-82
2021/12/17 04:45:23;;;;;;;16.70;4.20;;;;;;;3.40;83.51;101318.98;126982;1314;109198;-81
2021/12/17 04:58:40;;;;;;;30.90;11.60;;;;;;;3.58;83.62;101348.48;126741;1312;107771;-82
2021/12/17 05:01:48;;;;;;;20.30;6.00;;;;;;;3.65;83.46;101349.65;126547;1312;108770;-80
2021/12/17 05:04:54;;;;;;;20.60;6.20;;;;;;;3.63;83.31;101352.06;126926;1315;108919;-81
2021/12/17 05:08:03;;;;;;;17.90;5.60;;;;;;;3.57;83.47;101353.95;127151;1312;108841;-82
2021/12/17 05:11:24;;;;;;;19.10;6.40;;;;;;;3.56;83.57;101364.41;126926;1311;108885;-81
2021/12/17 05:21:22;;;;;;;133.90;58.80;;;;;;;3.57;83.78;101364.71;126614;1310;107847;-84
2021/12/17 05:24:27;;;;;;;20.90;7.30;;;;;;;3.59;83.68;101368.83;126498;1311;108714;-84
2021/12/17 05:27:33;;;;;;;16.00;5.40;;;;;;;3.58;83.88;101372.02;126697;1312;108990;-84
2021/12/17 05:30:45;;;;;;;30.90;12.20;;;;;;;3.53;83.97;101372.45;126786;1311;108788;-83
2021/12/17 05:33:52;;;;;;;34.60;17.00;;;;;;;3.49;84.23;101376.89;126700;1312;108889;-82
2021/12/17 05:36:58;;;;;;;20.80;6.60;;;;;;;3.48;84.19;101368.86;126604;1312;109041;-84
2021/12/17 05:40:08;;;;;;;17.80;5.60;;;;;;;3.48;83.95;101370.77;126998;1315;107460;-82
2021/12/17 05:43:16;;;;;;;19.90;6.40;;;;;;;3.50;84.13;101381.24;127343;1311;108768;-82
2021/12/17 05:46:36;;;;;;;19.30;7.30;;;;;;;3.50;84.32;101381.77;127148;1311;107083;-83
2021/12/17 05:49:42;;;;;;;111.90;43.90;;;;;;;3.55;84.13;101384.15;126926;1312;108858;-82
2021/12/17 05:52:48;;;;;;;21.40;6.40;;;;;;;3.56;84.26;101385.51;126647;1312;108877;-82
2021/12/17 05:55:54;;;;;;;22.20;7.10;;;;;;;3.53;84.25;101383.88;126615;1312;109029;-83
2021/12/17 05:59:01;;;;;;;22.50;7.40;;;;;;;3.55;84.10;101372.16;126886;1312;108945;-82
2021/12/17 06:02:11;;;;;;;17.10;6.30;;;;;;;3.59;83.93;101368.80;126629;1312;108466;-80
2021/12/17 06:05:20;;;;;;;19.00;5.80;;;;;;;3.60;84.02;101366.14;126778;1309;108803;-82
2021/12/17 06:08:26;;;;;;;18.40;5.80;;;;;;;3.57;84.13;101372.59;126710;1314;108897;-79
2021/12/17 06:11:31;;;;;;;15.70;5.40;;;;;;;3.59;84.01;101374.11;126704;1312;108716;-82
2021/12/17 06:14:38;;;;;;;18.20;5.90;;;;;;;3.68;83.93;101382.77;126576;1309;108738;-82
2021/12/17 06:17:45;;;;;;;15.60;6.20;;;;;;;3.71;83.91;101379.63;126632;1309;108844;-83
2021/12/17 06:20:51;;;;;;;15.40;5.70;;;;;;;3.65;83.85;101382.56;126863;1309;108874;-82
2021/12/17 06:23:56;;;;;;;17.70;5.50;;;;;;;3.58;84.05;101373.41;126538;1312;108831;-76
2021/12/17 06:27:02;;;;;;;15.40;5.30;;;;;;;3.57;84.09;101380.67;126581;1309;108874;-79
2021/12/17 06:30:12;;;;;;;16.20;6.10;;;;;;;3.59;83.91;101379.36;126576;1309;108808;-79
2021/12/17 06:33:18;;;;;;;17.60;7.50;;;;;;;3.60;83.96;101377.40;126478;1312;108912;-78
2021/12/17 06:36:24;;;;;;;19.50;6.50;;;;;;;3.59;83.90;101378.15;126483;1313;108876;-78
2021/12/17 06:39:32;;;;;;;17.80;5.90;;;;;;;3.56;84.09;101378.14;126522;1310;108864;-78
2021/12/17 06:42:39;;;;;;;20.00;6.60;;;;;;;3.59;84.14;101376.02;126517;1315;107826;-78
2021/12/17 06:45:53;;;;;;;15.80;6.40;;;;;;;3.59;84.05;101363.33;126603;1309;108803;-77
2021/12/17 06:49:17;;;;;;;19.70;6.90;;;;;;;3.64;84.06;101349.17;126554;1312;107692;-79
2021/12/17 07:07:03;;;;;;;36.40;13.10;;;;;;;3.48;84.22;101345.24;126603;1312;108931;-79
2021/12/17 07:10:41;;;;;;;23.20;8.10;;;;;;;3.46;84.32;101345.91;126668;1312;108744;-79
2021/12/17 07:17:15;;;;;;;59.80;25.00;;;;;;;3.51;84.25;101344.24;126550;1312;106743;-80
2021/12/17 07:24:05;;;;;;;17.20;6.10;;;;;;;3.47;84.11;101351.64;126576;1312;109081;-80
2021/12/17 07:34:05;;;;;;;20.20;7.50;;;;;;;3.41;84.50;101349.85;126501;1312;108874;-78
2021/12/17 07:40:44;;;;;;;19.20;7.40;;;;;;;3.40;84.54;101368.23;126602;1315;108837;-79
2021/12/17 07:43:55;;;;;;;22.20;7.00;;;;;;;3.41;84.41;101371.13;126638;1315;108909;-79
2021/12/17 07:47:01;;;;;;;21.30;6.60;;;;;;;3.41;84.34;101358.46;126461;1315;108874;-79
2021/12/17 07:50:08;;;;;;;15.30;6.50;;;;;;;3.41;84.48;101364.31;126503;1312;108825;-79
2021/12/17 07:53:20;;;;;;;16.80;6.70;;;;;;;3.37;84.78;101350.09;126493;1312;108705;-79
2021/12/17 07:56:37;;;;;;;21.10;7.40;;;;;;;3.38;84.61;101353.34;126444;1312;108949;-79
2021/12/17 07:59:48;;;;;;;21.50;6.70;;;;;;;3.38;84.81;101360.77;126629;1316;108999;-78
2021/12/17 08:02:53;;;;;;;16.40;6.30;;;;;;;3.37;84.78;101374.17;126490;1312;108953;-77
2021/12/17 08:06:19;;;;;;;19.90;7.10;;;;;;;3.40;84.80;101393.19;126481;1312;107433;-78
2021/12/17 08:09:41;;;;;;;19.10;7.50;;;;;;;3.41;84.59;101414.41;126535;1316;108925;-77
2021/12/17 08:12:47;;;;;;;22.30;7.20;;;;;;;3.40;84.95;101422.20;126495;1315;108945;-78
2021/12/17 08:16:07;;;;;;;22.20;7.50;;;;;;;3.40;84.75;101428.90;126525;1312;107863;-79
2021/12/17 08:26:09;;;;;;;19.20;6.70;;;;;;;3.43;84.83;101429.45;126657;1312;108821;-79
2021/12/17 08:29:27;;;;;;;18.50;7.70;;;;;;;3.40;84.72;101433.83;126557;1315;108978;-79
2021/12/17 08:32:35;;;;;;;18.40;8.00;;;;;;;3.32;85.09;101423.68;126546;1315;109009;-78
2021/12/17 08:35:43;;;;;;;17.50;7.20;;;;;;;3.34;85.13;101429.36;126642;1312;109050;-80
2021/12/17 08:38:52;;;;;;;20.10;7.50;;;;;;;3.36;84.86;101427.34;126554;1313;107770;-77
2021/12/17 08:42:21;;;;;;;19.80;8.90;;;;;;;3.38;84.83;101430.20;126502;1315;108948;-79
2021/12/17 08:45:27;;;;;;;15.90;8.50;;;;;;;3.41;84.52;101444.84;126462;1312;108965;-78
2021/12/17 08:49:06;;;;;;;17.90;7.70;;;;;;;3.40;84.62;101439.08;126209;1313;108927;-80
2021/12/17 08:52:32;;;;;;;20.10;8.70;;;;;;;3.43;84.43;101422.04;126366;1312;108770;-80
2021/12/17 08:55:37;;;;;;;18.10;8.60;;;;;;;3.50;84.37;101426.40;126508;1312;108720;-78
2021/12/17 08:58:44;;;;;;;26.40;11.70;;;;;;;3.51;83.99;101422.68;126552;1313;108806;-80
2021/12/17 09:01:49;;;;;;;34.50;16.00;;;;;;;3.54;84.36;101423.79;126507;1315;108811;-77
2021/12/17 09:04:54;;;;;;;45.10;17.80;;;;;;;3.55;84.10;101429.89;126502;1315;107753;-79
2021/12/17 09:08:00;;;;;;;24.70;11.10;;;;;;;3.55;84.06;101432.88;126486;1313;108763;-78
2021/12/17 09:11:32;;;;;;;28.80;10.10;;;;;;;3.55;84.05;101438.49;126613;1312;109174;-78
2021/12/17 09:14:41;;;;;;;22.20;9.40;;;;;;;3.52;83.99;101438.27;126565;1315;108974;-81
2021/12/17 09:18:05;;;;;;;18.90;8.10;;;;;;;3.47;84.13;101444.52;126626;1316;108730;-79
2021/12/17 09:21:16;;;;;;;20.00;8.50;;;;;;;3.46;84.27;101439.50;126576;1315;108762;-79
2021/12/17 09:24:40;;;;;;;23.10;11.50;;;;;;;3.46;84.38;101437.56;126590;1313;108917;-79
2021/12/17 09:27:57;;;;;;;20.70;7.70;;;;;;;3.49;84.27;101432.46;126581;1312;107814;-79
2021/12/17 09:31:21;;;;;;;16.60;7.20;;;;;;;3.49;83.77;101441.47;126595;1312;109001;-79
2021/12/17 09:34:26;;;;;;;14.90;7.90;;;;;;;3.49;83.59;101430.00;126623;1315;107650;-80
2021/12/17 09:37:32;;;;;;;22.70;8.90;;;;;;;3.52;83.21;101429.85;126671;1314;108823;-79
2021/12/17 09:40:37;;;;;;;20.10;7.70;;;;;;;3.52;83.49;101422.79;126514;1313;107261;-79
2021/12/17 09:43:43;;;;;;;16.50;7.00;;;;;;;3.55;83.20;101428.30;126562;1315;109231;-79
2021/12/17 09:46:50;;;;;;;23.00;8.20;;;;;;;3.59;83.27;101427.75;126382;1312;107562;-78
2021/12/17 09:49:58;;;;;;;18.40;7.90;;;;;;;3.60;82.90;101425.41;126568;1315;109121;-80
2021/12/17 09:53:03;;;;;;;16.50;6.10;;;;;;;3.61;83.02;101425.51;126628;1315;108887;-79
2021/12/17 09:56:09;;;;;;;15.40;5.70;;;;;;;3.64;82.89;101430.16;126509;1316;108919;-78
2021/12/17 09:59:15;;;;;;;13.90;6.50;;;;;;;3.64;82.88;101434.67;126625;1312;107231;-80
2021/12/17 10:02:21;;;;;;;17.10;6.80;;;;;;;3.71;83.04;101433.47;126557;1315;108618;-79
2021/12/17 10:05:30;;;;;;;15.60;6.70;;;;;;;3.74;82.51;101429.41;126629;1316;108689;-78
2021/12/17 10:08:46;;;;;;;12.70;5.80;;;;;;;3.71;82.42;101426.90;126258;1314;130198;-79
2021/12/17 10:12:06;;;;;;;14.10;5.20;;;;;;;3.74;82.89;101425.02;126647;1312;108763;-78
2021/12/17 10:15:14;;;;;;;17.60;6.60;;;;;;;3.80;82.56;101427.20;126702;1312;109448;-78
2021/12/17 10:18:30;;;;;;;16.50;6.80;;;;;;;3.80;82.56;101425.61;126611;1316;108955;-78
2021/12/17 10:21:38;;;;;;;15.50;6.80;;;;;;;3.78;82.74;101422.52;126479;1312;108982;-79
2021/12/17 10:24:56;;;;;;;16.50;6.50;;;;;;;3.75;82.55;101422.15;126298;1315;108756;-80
2021/12/17 10:28:04;;;;;;;16.10;5.80;;;;;;;3.75;82.87;101433.39;126321;1315;108716;-79
2021/12/17 10:31:12;;;;;;;16.90;6.90;;;;;;;3.80;82.53;101430.68;126659;1312;109204;-80
2021/12/17 10:34:18;;;;;;;18.10;6.80;;;;;;;3.82;82.64;101427.09;126790;1312;108916;-79
2021/12/17 10:37:38;;;;;;;17.20;7.10;;;;;;;3.84;82.41;101421.00;126444;1311;108813;-79
2021/12/17 10:40:49;;;;;;;18.10;7.00;;;;;;;3.81;82.39;101421.35;126324;1315;108925;-79
2021/12/17 10:43:59;;;;;;;13.50;6.00;;;;;;;3.81;82.76;101420.11;126459;1315;108977;-80
2021/12/17 10:47:15;;;;;;;17.00;6.90;;;;;;;3.85;82.67;101421.45;126415;1315;107328;-80
2021/12/17 10:50:28;;;;;;;15.80;7.90;;;;;;;3.87;82.46;101417.65;126666;1315;106660;-80
2021/12/17 10:53:33;;;;;;;20.30;7.80;;;;;;;3.89;82.55;101411.19;126555;1316;108289;-80
2021/12/17 10:56:40;;;;;;;17.30;7.10;;;;;;;3.92;82.57;101404.36;126538;1315;108862;-80
2021/12/17 10:59:47;;;;;;;18.40;7.60;;;;;;;3.93;82.38;101394.12;126706;1315;109297;-78
2021/12/17 11:02:54;;;;;;;15.40;7.90;;;;;;;3.95;82.42;101390.48;126602;1315;107823;-78
2021/12/17 11:06:00;;;;;;;19.80;8.40;;;;;;;3.97;82.33;101401.14;126534;1315;108935;-79
2021/12/17 11:09:05;;;;;;;16.10;7.40;;;;;;;3.94;82.11;101404.98;126623;1315;108820;-78
2021/12/17 11:12:32;;;;;;;16.60;7.70;;;;;;;3.92;81.96;101405.95;126700;1315;108735;-79
2021/12/17 11:15:37;;;;;;;20.30;7.60;;;;;;;3.93;82.39;101402.02;126702;1315;108814;-80
2021/12/17 11:18:43;;;;;;;16.50;6.60;;;;;;;3.91;82.24;101395.58;126593;1315;108523;-78
2021/12/17 11:21:49;;;;;;;15.40;6.80;;;;;;;3.92;82.19;101391.33;126396;1316;108931;-79
2021/12/17 11:24:54;;;;;;;20.50;7.40;;;;;;;3.98;82.37;101390.52;126271;1315;108894;-79
2021/12/17 11:28:00;;;;;;;17.20;7.10;;;;;;;4.00;81.81;101391.29;126351;1315;107590;-78
2021/12/17 11:31:06;;;;;;;17.00;6.70;;;;;;;3.92;81.62;101390.45;126566;1315;108707;-80
2021/12/17 11:34:12;;;;;;;15.90;6.70;;;;;;;3.90;81.89;101386.50;126530;1315;108779;-78
2021/12/17 11:37:19;;;;;;;18.00;6.90;;;;;;;3.92;81.87;101387.64;126476;1315;108838;-76
2021/12/17 11:40:28;;;;;;;19.20;7.00;;;;;;;3.93;81.70;101387.41;126582;1315;108189;-79
2021/12/17 11:43:51;;;;;;;18.40;7.70;;;;;;;3.97;81.86;101382.80;126389;1315;108864;-79
2021/12/17 11:47:07;;;;;;;18.60;7.50;;;;;;;4.00;81.94;101391.25;126345;1315;108775;-80
2021/12/17 11:50:14;;;;;;;18.10;7.80;;;;;;;4.02;82.02;101388.67;126297;1315;107598;-80
2021/12/17 11:53:25;;;;;;;19.50;6.60;;;;;;;4.07;81.61;101391.94;126448;1316;108429;-79
2021/12/17 11:56:41;;;;;;;16.50;5.90;;;;;;;4.09;80.88;101383.93;126364;1315;108601;-81
2021/12/17 11:59:48;;;;;;;18.90;5.90;;;;;;;4.11;80.86;101388.55;126770;1312;108996;-78
2021/12/17 12:02:54;;;;;;;14.30;5.70;;;;;;;4.13;80.72;101397.61;126479;1315;108427;-80
2021/12/17 12:06:00;;;;;;;12.30;5.80;;;;;;;4.16;80.82;101402.55;126527;1315;107540;-79
2021/12/17 12:09:06;;;;;;;15.30;6.80;;;;;;;4.20;80.68;101397.95;126440;1312;108909;-79
2021/12/17 12:12:12;;;;;;;21.50;9.50;;;;;;;4.22;80.86;101395.16;126626;1315;108681;-80
2021/12/17 12:15:39;;;;;;;27.50;13.00;;;;;;;4.19;80.86;101399.22;126421;1316;108797;-77
2021/12/17 12:18:54;;;;;;;22.00;10.50;;;;;;;4.18;81.32;101400.67;126437;1315;108637;-79
2021/12/17 12:22:08;;;;;;;19.30;7.60;;;;;;;4.20;81.50;101396.68;126514;1316;108774;-79
2021/12/17 12:25:39;;;;;;;19.40;8.10;;;;;;;4.25;81.51;101396.58;126577;1312;108912;-79
2021/12/17 12:28:50;;;;;;;21.00;9.20;;;;;;;4.30;81.35;101386.27;126205;1316;108371;-79
2021/12/17 12:32:02;;;;;;;26.60;11.10;;;;;;;4.34;81.53;101389.05;126651;1315;108858;-80
2021/12/17 12:35:10;;;;;;;26.10;10.70;;;;;;;4.34;81.31;101393.13;126479;1315;108721;-79
2021/12/17 12:38:17;;;;;;;25.40;9.70;;;;;;;4.22;81.43;101395.85;126561;1315;108722;-79
2021/12/17 12:41:40;;;;;;;14.30;7.50;;;;;;;4.19;81.69;101388.64;126396;1317;108630;-79
2021/12/17 12:45:15;;;;;;;17.50;8.50;;;;;;;4.20;81.73;101387.52;126513;1315;108744;-80
2021/12/17 12:48:32;;;;;;;24.40;10.80;;;;;;;4.20;81.69;101388.42;126592;1315;108757;-79
2021/12/17 12:51:39;;;;;;;25.50;10.70;;;;;;;4.19;81.71;101387.45;126623;1315;107428;-80
2021/12/17 12:54:48;;;;;;;21.20;8.50;;;;;;;4.15;81.74;101384.13;126418;1313;108813;-79
2021/12/17 12:58:02;;;;;;;22.80;8.80;;;;;;;4.11;81.72;101394.00;126558;1313;108690;-80
2021/12/17 13:01:13;;;;;;;21.40;9.90;;;;;;;4.15;81.73;101389.73;126468;1315;108911;-80
2021/12/17 13:04:19;;;;;;;20.20;9.60;;;;;;;4.19;81.59;101390.08;126431;1315;107788;-78
2021/12/17 13:07:35;;;;;;;25.70;10.90;;;;;;;4.20;81.34;101390.57;126363;1310;108851;-80
2021/12/17 13:10:43;;;;;;;25.30;11.70;;;;;;;4.18;81.57;101399.46;126552;1315;108520;-79
2021/12/17 13:13:52;;;;;;;20.30;8.10;;;;;;;4.14;81.50;101404.44;126638;1313;108951;-79
2021/12/17 13:17:18;;;;;;;15.90;7.20;;;;;;;4.12;81.74;101391.89;126646;1315;108794;-78
2021/12/17 13:20:43;;;;;;;18.30;7.50;;;;;;;4.12;81.56;101398.02;126740;1309;108954;-80
2021/12/17 13:23:56;;;;;;;20.60;8.60;;;;;;;4.17;81.64;101392.47;126358;1310;108862;-78
2021/12/17 13:27:09;;;;;;;18.70;9.30;;;;;;;4.16;81.54;101400.28;126508;1312;108695;-80
2021/12/17 13:30:15;;;;;;;22.00;9.00;;;;;;;4.18;81.71;101395.62;126408;1313;108821;-79
2021/12/17 13:33:20;;;;;;;20.40;8.80;;;;;;;4.14;81.66;101396.33;126406;1314;107878;-79
2021/12/17 13:36:25;;;;;;;16.20;8.00;;;;;;;4.15;81.90;101399.77;126473;1312;108786;-79
2021/12/17 13:39:34;;;;;;;21.40;9.20;;;;;;;4.19;81.67;101411.21;126437;1314;109000;-81
2021/12/17 13:42:43;;;;;;;22.80;9.30;;;;;;;4.17;81.35;101415.70;126313;1311;108958;-79
2021/12/17 13:45:50;;;;;;;20.50;8.50;;;;;;;4.14;81.68;101426.27;126418;1315;108827;-79
2021/12/17 13:48:56;;;;;;;21.60;10.80;;;;;;;4.11;81.73;101431.32;126394;1315;109103;-79
2021/12/17 13:52:02;;;;;;;19.30;8.70;;;;;;;4.10;81.70;101424.19;126312;1315;108536;-77
2021/12/17 13:55:11;;;;;;;22.80;9.80;;;;;;;4.11;81.63;101420.98;126352;1314;108569;-79
2021/12/17 13:58:20;;;;;;;37.50;16.30;;;;;;;4.11;81.42;101420.23;126358;1311;108833;-77
2021/12/17 14:01:25;;;;;;;27.10;13.30;;;;;;;4.13;81.45;101411.35;126372;1312;108861;-79
2021/12/17 14:04:31;;;;;;;43.60;23.40;;;;;;;4.16;81.55;101405.91;126455;1310;108676;-79
2021/12/17 14:07:38;;;;;;;23.30;9.70;;;;;;;4.16;81.45;101408.54;126283;1312;108812;-78
2021/12/17 14:10:44;;;;;;;19.60;8.00;;;;;;;4.13;81.58;101403.05;126374;1314;108575;-78
2021/12/17 14:13:50;;;;;;;18.40;7.60;;;;;;;4.14;81.27;101393.35;126471;1312;107595;-78
2021/12/17 14:17:05;;;;;;;21.90;9.40;;;;;;;4.16;81.32;101390.80;126328;1313;108980;-79
2021/12/17 14:20:16;;;;;;;23.40;8.90;;;;;;;4.17;81.31;101391.57;126648;1311;108740;-80
2021/12/17 14:23:23;;;;;;;25.70;12.60;;;;;;;4.16;81.39;101392.14;126861;1309;107768;-78
2021/12/17 14:26:32;;;;;;;19.00;9.30;;;;;;;4.15;81.41;101397.31;126529;1315;108764;-79
2021/12/17 14:29:38;;;;;;;35.80;15.40;;;;;;;4.12;81.43;101398.02;126474;1316;106949;-79
2021/12/17 14:32:46;;;;;;;34.00;14.20;;;;;;;4.14;81.56;101392.30;126429;1312;108844;-79
2021/12/17 14:35:59;;;;;;;22.10;6.40;;;;;;;4.18;81.31;101395.95;126497;1313;108424;-79
2021/12/17 14:39:09;;;;;;;16.10;6.50;;;;;;;4.16;81.39;101389.73;126499;1309;108806;-79
2021/12/17 14:42:36;;;;;;;31.30;12.20;;;;;;;4.12;81.47;101383.05;126503;1309;107353;-80
2021/12/17 14:45:45;;;;;;;16.70;7.30;;;;;;;4.11;81.47;101391.36;126675;1312;108918;-78
2021/12/17 14:49:12;;;;;;;20.90;8.20;;;;;;;4.15;81.57;101390.65;126926;1310;108734;-79
2021/12/17 15:02:48;;;;;;;24.50;7.80;;;;;;;4.19;81.70;101403.65;126527;1309;108967;-79
2021/12/17 15:05:55;;;;;;;19.60;8.30;;;;;;;4.19;81.70;101396.06;126478;1309;108735;-79
2021/12/17 15:09:02;;;;;;;24.30;9.80;;;;;;;4.18;81.87;101396.98;126617;1313;108866;-79
2021/12/17 15:12:25;;;;;;;20.10;7.50;;;;;;;4.16;81.88;101389.55;126491;1313;108928;-77
2021/12/17 15:15:35;;;;;;;23.40;7.90;;;;;;;4.14;81.93;101396.17;126704;1306;109011;-79
2021/12/17 15:18:43;;;;;;;18.10;8.30;;;;;;;4.17;81.80;101389.14;126943;1309;108767;-79
2021/12/17 15:21:49;;;;;;;21.30;8.40;;;;;;;4.19;81.76;101392.90;126496;1312;108989;-80
2021/12/17 15:24:54;;;;;;;18.90;7.10;;;;;;;4.17;81.82;101394.38;126634;1309;108812;-80
2021/12/17 15:28:00;;;;;;;22.10;8.10;;;;;;;4.15;81.99;101391.14;126505;1309;108805;-76
2021/12/17 15:31:08;;;;;;;21.30;6.90;;;;;;;4.12;82.20;101392.35;126562;1309;108788;-77
2021/12/17 15:34:13;;;;;;;17.20;8.00;;;;;;;4.14;82.13;101382.23;126640;1309;108745;-82
2021/12/17 15:37:19;;;;;;;19.50;7.00;;;;;;;4.17;81.91;101389.11;126614;1312;108902;-74
2021/12/17 15:40:25;;;;;;;16.80;8.30;;;;;;;4.16;81.94;101393.04;126585;1315;108804;-74
2021/12/17 15:43:31;;;;;;;18.60;7.30;;;;;;;4.13;82.19;101398.30;126309;1312;108631;-73
2021/12/17 15:46:36;;;;;;;20.80;8.10;;;;;;;4.12;82.12;101404.52;126332;1311;108954;-72
2021/12/17 15:49:42;;;;;;;29.80;11.50;;;;;;;4.15;81.92;101407.54;126669;1312;109053;-74
2021/12/17 15:52:47;;;;;;;19.50;6.70;;;;;;;4.16;82.09;101405.20;126330;1313;108932;-75
2021/12/17 15:55:53;;;;;;;17.60;6.40;;;;;;;4.12;82.05;101411.05;126356;1311;108864;-76
2021/12/17 15:58:58;;;;;;;22.20;9.00;;;;;;;4.10;82.07;101410.09;126701;1310;108952;-79
2021/12/17 16:02:04;;;;;;;13.50;6.20;;;;;;;4.10;82.27;101408.16;126805;1309;108850;-74
2021/12/17 16:05:17;;;;;;;15.80;6.30;;;;;;;4.09;82.14;101408.05;126480;1311;108744;-78
2021/12/17 16:08:22;;;;;;;19.30;7.40;;;;;;;4.06;82.11;101398.15;126402;1315;108766;-85
2021/12/17 16:18:27;;;;;;;40.20;15.20;;;;;;;4.06;82.11;101395.16;126441;1309;108820;-80
2021/12/17 16:21:33;;;;;;;17.10;6.80;;;;;;;4.03;82.26;101396.19;126503;1312;108615;-79
2021/12/17 16:24:39;;;;;;;21.80;8.90;;;;;;;4.01;82.27;101406.55;126812;1310;106669;-82
2021/12/17 16:27:44;;;;;;;20.30;8.00;;;;;;;4.00;82.24;101414.32;126661;1316;108775;-77
2021/12/17 16:30:50;;;;;;;21.00;8.10;;;;;;;4.02;82.18;101413.34;126412;1312;108796;-77
2021/12/17 16:33:58;;;;;;;27.20;10.70;;;;;;;4.01;82.01;101419.41;126674;1309;108809;-78
2021/12/17 16:37:04;;;;;;;15.30;6.60;;;;;;;3.98;82.18;101425.52;126593;1312;108474;-77
2021/12/17 16:40:13;;;;;;;44.50;18.00;;;;;;;3.99;82.28;101433.95;126485;1312;108919;-79
2021/12/17 16:43:18;;;;;;;20.20;8.20;;;;;;;3.99;82.23;101431.61;126684;1312;108736;-78
2021/12/17 16:47:01;;;;;;;35.20;15.80;;;;;;;3.98;82.25;101433.48;126426;1312;109113;-76
2021/12/17 16:50:04;;;;;;;26.80;8.70;;;;;;;3.96;82.12;101433.93;126735;1312;107102;-84
2021/12/17 16:53:10;;;;;;;22.70;10.90;;;;;;;3.98;82.06;101439.61;127395;1315;108542;-79
2021/12/17 16:56:17;;;;;;;37.90;15.60;;;;;;;4.03;81.96;101446.05;126795;1311;108802;-89